sensor_id;sensor_type;location;lat;lon;timestamp;pressure;altitude;pressure_sealevel;temperature;humidity
29121;BME280;16191;49.548;8.658;2023-09-30T00:02:20;101221.78;;;17.44;100.00
29121;BME280;16191;49.548;8.658;2023-09-30T00:04:46;101216.59;;;17.43;100.00
29121;BME280;16191;49.548;8.658;2023-09-30T00:07:13;101208.91;;;17.38;100.00
29121;BME280;16191;49.548;8.658;2023-09-30T00:09:40;101213.56;;;17.33;100.00
29121;BME280;16191;49.548;8.658;2023-09-30T00:12:07;101215.56;;;17.30;100.00
29121;BME280;16191;49.548;8.658;2023-09-30T00:14:33;101223.13;;;17.36;100.00
29121;BME280;16191;49.548;8.658;2023-09-30T00:17:00;101219.69;;;17.34;100.00
29121;BME280;16191;49.548;8.658;2023-09-30T00:19:27;101226.03;;;17.31;100.00
29121;BME280;16191;49.548;8.658;2023-09-30T00:21:53;101227.03;;;17.29;100.00
29121;BME280;16191;49.548;8.658;2023-09-30T00:24:20;101237.97;;;17.21;100.00
29121;BME280;16191;49.548;8.658;2023-09-30T00:26:47;101243.41;;;17.18;100.00
29121;BME280;16191;49.548;8.658;2023-09-30T00:29:13;101246.28;;;17.13;100.00
29121;BME280;16191;49.548;8.658;2023-09-30T00:31:40;101248.00;;;17.14;100.00
29121;BME280;16191;49.548;8.658;2023-09-30T00:34:07;101248.00;;;17.14;100.00
29121;BME280;16191;49.548;8.658;2023-09-30T00:36:35;101256.97;;;17.10;100.00
29121;BME280;16191;49.548;8.658;2023-09-30T00:39:01;101252.91;;;17.05;100.00
29121;BME280;16191;49.548;8.658;2023-09-30T00:41:28;101255.47;;;17.06;100.00
29121;BME280;16191;49.548;8.658;2023-09-30T00:43:55;101258.41;;;17.00;100.00
29121;BME280;16191;49.548;8.658;2023-09-30T00:46:31;101267.09;;;17.02;100.00
29121;BME280;16191;49.548;8.658;2023-09-30T00:48:59;101269.66;;;17.04;100.00
29121;BME280;16191;49.548;8.658;2023-09-30T00:51:27;101268.97;;;17.00;100.00
29121;BME280;16191;49.548;8.658;2023-09-30T00:53:57;101265.69;;;16.95;100.00
29121;BME280;16191;49.548;8.658;2023-09-30T00:56:26;101262.53;;;16.89;100.00
29121;BME280;16191;49.548;8.658;2023-09-30T00:58:53;101270.69;;;16.84;100.00
29121;BME280;16191;49.548;8.658;2023-09-30T01:01:20;101269.75;;;16.85;100.00
29121;BME280;16191;49.548;8.658;2023-09-30T01:03:48;101257.34;;;16.87;100.00
29121;BME280;16191;49.548;8.658;2023-09-30T01:06:15;101263.53;;;16.86;100.00
29121;BME280;16191;49.548;8.658;2023-09-30T01:09:02;101265.31;;;16.86;100.00
29121;BME280;16191;49.548;8.658;2023-09-30T01:11:49;101263.78;;;16.82;100.00
29121;BME280;16191;49.548;8.658;2023-09-30T01:14:36;101258.50;;;16.82;100.00
29121;BME280;16191;49.548;8.658;2023-09-30T01:17:27;101254.22;;;16.79;100.00
29121;BME280;16191;49.548;8.658;2023-09-30T01:20:15;101264.94;;;16.76;100.00
29121;BME280;16191;49.548;8.658;2023-09-30T01:23:03;101259.72;;;16.74;100.00
29121;BME280;16191;49.548;8.658;2023-09-30T01:25:30;101263.38;;;16.72;100.00
29121;BME280;16191;49.548;8.658;2023-09-30T01:27:57;101265.16;;;16.71;100.00
29121;BME280;16191;49.548;8.658;2023-09-30T01:30:26;101257.25;;;16.71;100.00
29121;BME280;16191;49.548;8.658;2023-09-30T01:32:53;101267.63;;;16.74;100.00
29121;BME280;16191;49.548;8.658;2023-09-30T01:35:22;101266.00;;;16.72;100.00
29121;BME280;16191;49.548;8.658;2023-09-30T01:37:48;101274.06;;;16.69;100.00
29121;BME280;16191;49.548;8.658;2023-09-30T01:40:15;101275.94;;;16.67;100.00
29121;BME280;16191;49.548;8.658;2023-09-30T01:42:41;101271.50;;;16.67;100.00
29121;BME280;16191;49.548;8.658;2023-09-30T01:45:09;101269.56;;;16.71;100.00
29121;BME280;16191;49.548;8.658;2023-09-30T01:47:37;101272.34;;;16.68;100.00
29121;BME280;16191;49.548;8.658;2023-09-30T01:50:04;101264.38;;;16.69;100.00
29121;BME280;16191;49.548;8.658;2023-09-30T01:52:31;101271.59;;;16.66;100.00
29121;BME280;16191;49.548;8.658;2023-09-30T01:54:57;101270.69;;;16.67;100.00
29121;BME280;16191;49.548;8.658;2023-09-30T01:57:24;101275.16;;;16.65;100.00
29121;BME280;16191;49.548;8.658;2023-09-30T01:59:50;101282.88;;;16.68;100.00
29121;BME280;16191;49.548;8.658;2023-09-30T02:02:18;101278.66;;;16.65;100.00
29121;BME280;16191;49.548;8.658;2023-09-30T02:04:45;101278.00;;;16.60;100.00
29121;BME280;16191;49.548;8.658;2023-09-30T02:07:12;101262.59;;;16.70;100.00
29121;BME280;16191;49.548;8.658;2023-09-30T02:09:39;101274.75;;;16.72;100.00
29121;BME280;16191;49.548;8.658;2023-09-30T02:12:05;101276.53;;;16.72;100.00
29121;BME280;16191;49.548;8.658;2023-09-30T02:14:34;101274.69;;;16.74;100.00
29121;BME280;16191;49.548;8.658;2023-09-30T02:17:01;101284.31;;;16.75;100.00
29121;BME280;16191;49.548;8.658;2023-09-30T02:19:28;101275.38;;;16.77;100.00
29121;BME280;16191;49.548;8.658;2023-09-30T02:21:57;101269.03;;;16.82;100.00
29121;BME280;16191;49.548;8.658;2023-09-30T02:24:23;101270.81;;;16.81;100.00
29121;BME280;16191;49.548;8.658;2023-09-30T02:26:50;101276.41;;;16.75;100.00
29121;BME280;16191;49.548;8.658;2023-09-30T02:29:17;101285.41;;;16.52;100.00
29121;BME280;16191;49.548;8.658;2023-09-30T02:31:43;101276.88;;;16.47;100.00
29121;BME280;16191;49.548;8.658;2023-09-30T02:34:10;101281.06;;;16.51;100.00
29121;BME280;16191;49.548;8.658;2023-09-30T02:36:39;101283.69;;;16.51;100.00
29121;BME280;16191;49.548;8.658;2023-09-30T02:39:06;101288.47;;;16.62;100.00
29121;BME280;16191;49.548;8.658;2023-09-30T02:41:36;101285.13;;;16.58;100.00
29121;BME280;16191;49.548;8.658;2023-09-30T02:44:04;101275.16;;;16.65;100.00
29121;BME280;16191;49.548;8.658;2023-09-30T02:46:31;101292.69;;;16.66;100.00
29121;BME280;16191;49.548;8.658;2023-09-30T02:48:58;101296.59;;;16.57;100.00
29121;BME280;16191;49.548;8.658;2023-09-30T02:51:25;101295.66;;;16.58;100.00
29121;BME280;16191;49.548;8.658;2023-09-30T02:53:54;101291.47;;;16.54;100.00
29121;BME280;16191;49.548;8.658;2023-09-30T02:56:22;101293.31;;;16.52;100.00
29121;BME280;16191;49.548;8.658;2023-09-30T02:58:50;101297.72;;;16.52;100.00
29121;BME280;16191;49.548;8.658;2023-09-30T03:01:20;101290.97;;;16.46;100.00
29121;BME280;16191;49.548;8.658;2023-09-30T03:03:47;101304.25;;;16.44;100.00
29121;BME280;16191;49.548;8.658;2023-09-30T03:06:14;101302.75;;;16.39;100.00
29121;BME280;16191;49.548;8.658;2023-09-30T03:08:41;101302.03;;;16.35;100.00
29121;BME280;16191;49.548;8.658;2023-09-30T03:11:08;101303.09;;;16.31;100.00
29121;BME280;16191;49.548;8.658;2023-09-30T03:13:35;101303.19;;;16.30;100.00
29121;BME280;16191;49.548;8.658;2023-09-30T03:16:01;101311.22;;;16.27;100.00
29121;BME280;16191;49.548;8.658;2023-09-30T03:18:28;101306.34;;;16.19;100.00
29121;BME280;16191;49.548;8.658;2023-09-30T03:21:01;101308.03;;;16.20;100.00
29121;BME280;16191;49.548;8.658;2023-09-30T03:23:34;101296.09;;;16.13;100.00
29121;BME280;16191;49.548;8.658;2023-09-30T03:26:01;101284.84;;;16.09;100.00
29121;BME280;16191;49.548;8.658;2023-09-30T03:28:28;101275.22;;;16.08;100.00
29121;BME280;16191;49.548;8.658;2023-09-30T03:30:55;101271.28;;;16.00;100.00
29121;BME280;16191;49.548;8.658;2023-09-30T03:33:23;101274.25;;;15.92;100.00
29121;BME280;16191;49.548;8.658;2023-09-30T03:35:49;101268.13;;;15.92;100.00
29121;BME280;16191;49.548;8.658;2023-09-30T03:38:16;101271.97;;;15.85;100.00
29121;BME280;16191;49.548;8.658;2023-09-30T03:40:44;101278.16;;;15.84;100.00
29121;BME280;16191;49.548;8.658;2023-09-30T03:43:16;101286.97;;;15.83;100.00
29121;BME280;16191;49.548;8.658;2023-09-30T03:45:42;101297.50;;;15.83;100.00
29121;BME280;16191;49.548;8.658;2023-09-30T03:48:09;101304.69;;;15.79;100.00
29121;BME280;16191;49.548;8.658;2023-09-30T03:50:37;101295.16;;;15.76;100.00
29121;BME280;16191;49.548;8.658;2023-09-30T03:53:05;101307.75;;;15.70;100.00
29121;BME280;16191;49.548;8.658;2023-09-30T03:55:33;101310.00;;;15.59;100.00
29121;BME280;16191;49.548;8.658;2023-09-30T03:58:00;101318.06;;;15.54;100.00
29121;BME280;16191;49.548;8.658;2023-09-30T04:00:27;101312.09;;;15.51;100.00
29121;BME280;16191;49.548;8.658;2023-09-30T04:02:55;101317.28;;;15.52;100.00
29121;BME280;16191;49.548;8.658;2023-09-30T04:05:25;101320.69;;;15.54;100.00
29121;BME280;16191;49.548;8.658;2023-09-30T04:07:56;101324.44;;;15.49;100.00
29121;BME280;16191;49.548;8.658;2023-09-30T04:10:24;101322.06;;;15.42;100.00
29121;BME280;16191;49.548;8.658;2023-09-30T04:12:51;101320.44;;;15.40;100.00
29121;BME280;16191;49.548;8.658;2023-09-30T04:15:18;101322.00;;;15.44;100.00
29121;BME280;16191;49.548;8.658;2023-09-30T04:17:45;101321.16;;;15.43;100.00
29121;BME280;16191;49.548;8.658;2023-09-30T04:20:12;101319.25;;;15.47;100.00
29121;BME280;16191;49.548;8.658;2023-09-30T04:22:45;101316.75;;;15.44;100.00
29121;BME280;16191;49.548;8.658;2023-09-30T04:25:16;101319.56;;;15.39;100.00
29121;BME280;16191;49.548;8.658;2023-09-30T04:27:43;101316.81;;;15.42;100.00
29121;BME280;16191;49.548;8.658;2023-09-30T04:30:12;101323.91;;;15.40;100.00
29121;BME280;16191;49.548;8.658;2023-09-30T04:32:41;101323.97;;;15.39;100.00
29121;BME280;16191;49.548;8.658;2023-09-30T04:35:08;101313.63;;;15.36;100.00
29121;BME280;16191;49.548;8.658;2023-09-30T04:37:35;101304.72;;;15.38;100.00
29121;BME280;16191;49.548;8.658;2023-09-30T04:40:04;101310.19;;;15.34;100.00
29121;BME280;16191;49.548;8.658;2023-09-30T04:42:35;101316.38;;;15.33;100.00
29121;BME280;16191;49.548;8.658;2023-09-30T04:45:05;101319.00;;;15.33;100.00
29121;BME280;16191;49.548;8.658;2023-09-30T04:47:34;101318.22;;;15.31;100.00
29121;BME280;16191;49.548;8.658;2023-09-30T04:50:00;101328.69;;;15.32;100.00
29121;BME280;16191;49.548;8.658;2023-09-30T04:52:31;101325.97;;;15.34;100.00
29121;BME280;16191;49.548;8.658;2023-09-30T04:54:57;101323.41;;;15.32;100.00
29121;BME280;16191;49.548;8.658;2023-09-30T04:57:24;101326.69;;;15.17;100.00
29121;BME280;16191;49.548;8.658;2023-09-30T04:59:52;101323.19;;;15.17;100.00
29121;BME280;16191;49.548;8.658;2023-09-30T05:02:18;101317.69;;;15.23;100.00
29121;BME280;16191;49.548;8.658;2023-09-30T05:04:45;101311.63;;;15.21;100.00
29121;BME280;16191;49.548;8.658;2023-09-30T05:07:12;101332.22;;;15.11;100.00
29121;BME280;16191;49.548;8.658;2023-09-30T05:09:39;101321.69;;;14.91;100.00
29121;BME280;16191;49.548;8.658;2023-09-30T05:12:06;101322.09;;;15.02;100.00
29121;BME280;16191;49.548;8.658;2023-09-30T05:14:33;101333.88;;;15.14;100.00
29121;BME280;16191;49.548;8.658;2023-09-30T05:17:00;101335.59;;;15.15;100.00
29121;BME280;16191;49.548;8.658;2023-09-30T05:19:27;101336.47;;;14.93;100.00
29121;BME280;16191;49.548;8.658;2023-09-30T05:21:54;101342.31;;;15.00;100.00
29121;BME280;16191;49.548;8.658;2023-09-30T05:24:21;101352.72;;;15.03;100.00
29121;BME280;16191;49.548;8.658;2023-09-30T05:26:47;101360.84;;;14.97;100.00
29121;BME280;16191;49.548;8.658;2023-09-30T05:29:14;101358.81;;;15.03;100.00
29121;BME280;16191;49.548;8.658;2023-09-30T05:31:43;101364.81;;;15.07;100.00
29121;BME280;16191;49.548;8.658;2023-09-30T05:34:09;101363.91;;;15.08;100.00
29121;BME280;16191;49.548;8.658;2023-09-30T05:36:36;101359.75;;;15.02;100.00
29121;BME280;16191;49.548;8.658;2023-09-30T05:39:03;101363.97;;;15.06;100.00
29121;BME280;16191;49.548;8.658;2023-09-30T05:41:31;101358.56;;;15.09;100.00
29121;BME280;16191;49.548;8.658;2023-09-30T05:43:58;101371.78;;;15.08;100.00
29121;BME280;16191;49.548;8.658;2023-09-30T05:46:25;101377.72;;;15.13;100.00
29121;BME280;16191;49.548;8.658;2023-09-30T05:48:53;101375.38;;;15.05;100.00
29121;BME280;16191;49.548;8.658;2023-09-30T05:51:21;101378.19;;;15.01;100.00
29121;BME280;16191;49.548;8.658;2023-09-30T05:53:47;101371.34;;;14.97;100.00
29121;BME280;16191;49.548;8.658;2023-09-30T05:56:14;101379.06;;;15.01;100.00
29121;BME280;16191;49.548;8.658;2023-09-30T05:58:44;101373.75;;;15.03;100.00
29121;BME280;16191;49.548;8.658;2023-09-30T06:01:10;101373.75;;;15.03;100.00
29121;BME280;16191;49.548;8.658;2023-09-30T06:03:37;101379.00;;;15.03;100.00
29121;BME280;16191;49.548;8.658;2023-09-30T06:06:11;101368.53;;;15.01;100.00
29121;BME280;16191;49.548;8.658;2023-09-30T06:08:39;101358.09;;;15.00;100.00
29121;BME280;16191;49.548;8.658;2023-09-30T06:11:06;101368.41;;;15.04;100.00
29121;BME280;16191;49.548;8.658;2023-09-30T06:13:33;101374.47;;;15.06;100.00
29121;BME280;16191;49.548;8.658;2023-09-30T06:15:59;101378.81;;;15.07;100.00
29121;BME280;16191;49.548;8.658;2023-09-30T06:18:26;101378.00;;;15.05;100.00
29121;BME280;16191;49.548;8.658;2023-09-30T06:20:53;101379.06;;;15.01;100.00
29121;BME280;16191;49.548;8.658;2023-09-30T06:23:20;101380.59;;;15.07;100.00
29121;BME280;16191;49.548;8.658;2023-09-30T06:25:46;101379.78;;;15.05;100.00
29121;BME280;16191;49.548;8.658;2023-09-30T06:28:13;101387.38;;;15.13;100.00
29121;BME280;16191;49.548;8.658;2023-09-30T06:30:40;101386.50;;;15.12;100.00
29121;BME280;16191;49.548;8.658;2023-09-30T06:33:08;101388.41;;;15.08;100.00
29121;BME280;16191;49.548;8.658;2023-09-30T06:35:38;101390.84;;;15.13;100.00
29121;BME280;16191;49.548;8.658;2023-09-30T06:38:19;101382.97;;;15.13;100.00
29121;BME280;16191;49.548;8.658;2023-09-30T06:40:47;101383.75;;;15.15;100.00
29121;BME280;16191;49.548;8.658;2023-09-30T06:43:14;101388.06;;;15.16;100.00
29121;BME280;16191;49.548;8.658;2023-09-30T06:45:44;101409.84;;;15.20;100.00
29121;BME280;16191;49.548;8.658;2023-09-30T06:48:13;101407.28;;;15.18;100.00
29121;BME280;16191;49.548;8.658;2023-09-30T06:50:44;101408.63;;;15.28;100.00
29121;BME280;16191;49.548;8.658;2023-09-30T06:53:11;101411.19;;;15.30;100.00
29121;BME280;16191;49.548;8.658;2023-09-30T06:55:38;101412.66;;;15.37;100.00
29121;BME280;16191;49.548;8.658;2023-09-30T06:58:06;101420.31;;;15.41;100.00
29121;BME280;16191;49.548;8.658;2023-09-30T07:00:38;101417.63;;;15.43;100.00
29121;BME280;16191;49.548;8.658;2023-09-30T07:03:05;101411.69;;;15.38;100.00
29121;BME280;16191;49.548;8.658;2023-09-30T07:05:31;101405.06;;;15.50;100.00
29121;BME280;16191;49.548;8.658;2023-09-30T07:07:58;101410.16;;;15.54;100.00
29121;BME280;16191;49.548;8.658;2023-09-30T07:10:25;101414.00;;;15.46;100.00
29121;BME280;16191;49.548;8.658;2023-09-30T07:12:51;101419.28;;;15.46;100.00
29121;BME280;16191;49.548;8.658;2023-09-30T07:15:18;101416.25;;;15.55;100.00
29121;BME280;16191;49.548;8.658;2023-09-30T07:17:44;101425.25;;;15.49;100.00
29121;BME280;16191;49.548;8.658;2023-09-30T07:20:13;101438.38;;;15.71;100.00
29121;BME280;16191;49.548;8.658;2023-09-30T07:22:40;101439.75;;;16.00;100.00
29121;BME280;16191;49.548;8.658;2023-09-30T07:25:21;101449.94;;;16.07;100.00
29121;BME280;16191;49.548;8.658;2023-09-30T07:27:48;101451.13;;;16.00;100.00
29121;BME280;16191;49.548;8.658;2023-09-30T07:30:15;101456.97;;;16.07;100.00
29121;BME280;16191;49.548;8.658;2023-09-30T07:32:43;101444.69;;;16.26;100.00
29121;BME280;16191;49.548;8.658;2023-09-30T07:35:11;101445.13;;;16.36;100.00
29121;BME280;16191;49.548;8.658;2023-09-30T07:37:38;101427.53;;;16.55;100.00
29121;BME280;16191;49.548;8.658;2023-09-30T07:40:05;101423.00;;;16.59;100.00
29121;BME280;16191;49.548;8.658;2023-09-30T07:42:32;101429.63;;;16.67;100.00
29121;BME280;16191;49.548;8.658;2023-09-30T07:45:00;101442.38;;;16.76;100.00
29121;BME280;16191;49.548;8.658;2023-09-30T07:47:26;101437.53;;;16.86;100.00
29121;BME280;16191;49.548;8.658;2023-09-30T07:49:53;101433.56;;;16.95;100.00
29121;BME280;16191;49.548;8.658;2023-09-30T07:52:20;101432.94;;;17.08;100.00
29121;BME280;16191;49.548;8.658;2023-09-30T07:54:47;101447.56;;;17.14;100.00
29121;BME280;16191;49.548;8.658;2023-09-30T07:57:14;101455.63;;;17.30;100.00
29121;BME280;16191;49.548;8.658;2023-09-30T07:59:41;101456.78;;;17.41;100.00
29121;BME280;16191;49.548;8.658;2023-09-30T08:02:07;101455.91;;;17.58;100.00
29121;BME280;16191;49.548;8.658;2023-09-30T08:04:35;101446.63;;;17.68;100.00
29121;BME280;16191;49.548;8.658;2023-09-30T08:07:02;101445.69;;;17.87;100.00
29121;BME280;16191;49.548;8.658;2023-09-30T08:09:29;101436.25;;;17.98;100.00
29121;BME280;16191;49.548;8.658;2023-09-30T08:11:56;101431.91;;;17.97;100.00
29121;BME280;16191;49.548;8.658;2023-09-30T08:14:23;101439.59;;;18.02;100.00
29121;BME280;16191;49.548;8.658;2023-09-30T08:16:49;101444.38;;;17.95;100.00
29121;BME280;16191;49.548;8.658;2023-09-30T08:19:16;101443.94;;;18.03;100.00
29121;BME280;16191;49.548;8.658;2023-09-30T08:21:46;101438.22;;;17.95;100.00
29121;BME280;16191;49.548;8.658;2023-09-30T08:24:12;101440.94;;;18.26;100.00
29121;BME280;16191;49.548;8.658;2023-09-30T08:26:39;101445.97;;;18.31;100.00
29121;BME280;16191;49.548;8.658;2023-09-30T08:29:05;101432.59;;;18.49;100.00
29121;BME280;16191;49.548;8.658;2023-09-30T08:31:33;101438.44;;;18.72;100.00
29121;BME280;16191;49.548;8.658;2023-09-30T08:33:59;101435.97;;;19.00;100.00
29121;BME280;16191;49.548;8.658;2023-09-30T08:36:26;101442.66;;;19.06;100.00
29121;BME280;16191;49.548;8.658;2023-09-30T08:38:52;101453.69;;;19.14;100.00
29121;BME280;16191;49.548;8.658;2023-09-30T08:41:32;101452.69;;;19.01;100.00
29121;BME280;16191;49.548;8.658;2023-09-30T08:44:01;101461.66;;;19.28;100.00
29121;BME280;16191;49.548;8.658;2023-09-30T08:46:33;101456.69;;;19.54;100.00
29121;BME280;16191;49.548;8.658;2023-09-30T08:49:02;101458.31;;;19.70;100.00
29121;BME280;16191;49.548;8.658;2023-09-30T08:51:32;101456.84;;;19.80;97.81
29121;BME280;16191;49.548;8.658;2023-09-30T08:54:00;101460.16;;;19.70;100.00
29121;BME280;16191;49.548;8.658;2023-09-30T08:56:29;101468.78;;;19.88;99.28
29121;BME280;16191;49.548;8.658;2023-09-30T08:58:57;101456.38;;;19.88;100.00
29121;BME280;16191;49.548;8.658;2023-09-30T09:01:29;101460.25;;;19.07;100.00
29121;BME280;16191;49.548;8.658;2023-09-30T09:03:57;101463.03;;;19.35;100.00
29121;BME280;16191;49.548;8.658;2023-09-30T09:06:25;101454.59;;;19.89;99.41
29121;BME280;16191;49.548;8.658;2023-09-30T09:08:52;101459.13;;;20.15;93.90
29121;BME280;16191;49.548;8.658;2023-09-30T09:11:19;101458.94;;;20.18;89.32
29121;BME280;16191;49.548;8.658;2023-09-30T09:13:48;101458.66;;;20.23;86.89
29121;BME280;16191;49.548;8.658;2023-09-30T09:16:23;101464.13;;;19.31;87.28
29121;BME280;16191;49.548;8.658;2023-09-30T09:18:50;101466.75;;;19.47;89.32
29121;BME280;16191;49.548;8.658;2023-09-30T09:21:20;101463.97;;;20.08;85.38
29121;BME280;16191;49.548;8.658;2023-09-30T09:23:50;101456.41;;;20.45;85.93
29121;BME280;16191;49.548;8.658;2023-09-30T09:26:28;101449.88;;;20.22;87.81
29121;BME280;16191;49.548;8.658;2023-09-30T09:29:02;101459.72;;;19.62;88.36
29121;BME280;16191;49.548;8.658;2023-09-30T09:31:32;101474.00;;;20.03;86.45
29121;BME280;16191;49.548;8.658;2023-09-30T09:34:01;101459.03;;;20.59;85.54
29121;BME280;16191;49.548;8.658;2023-09-30T09:36:43;101458.81;;;21.03;82.21
29121;BME280;16191;49.548;8.658;2023-09-30T09:39:11;101459.88;;;21.01;80.62
29121;BME280;16191;49.548;8.658;2023-09-30T09:41:53;101462.88;;;21.09;77.86
29121;BME280;16191;49.548;8.658;2023-09-30T09:44:21;101457.75;;;20.79;80.01
29121;BME280;16191;49.548;8.658;2023-09-30T09:46:49;101459.34;;;21.23;75.99
29121;BME280;16191;49.548;8.658;2023-09-30T09:49:18;101466.13;;;21.53;76.33
29121;BME280;16191;49.548;8.658;2023-09-30T09:51:49;101460.50;;;21.18;76.25
29121;BME280;16191;49.548;8.658;2023-09-30T09:54:16;101467.84;;;20.60;78.58
29121;BME280;16191;49.548;8.658;2023-09-30T09:56:46;101465.22;;;20.45;80.31
29121;BME280;16191;49.548;8.658;2023-09-30T09:59:15;101461.16;;;21.22;75.00
29121;BME280;16191;49.548;8.658;2023-09-30T10:01:42;101465.03;;;21.83;69.18
29121;BME280;16191;49.548;8.658;2023-09-30T10:04:13;101463.41;;;21.28;75.24
29121;BME280;16191;49.548;8.658;2023-09-30T10:06:44;101469.03;;;21.88;69.95
29121;BME280;16191;49.548;8.658;2023-09-30T10:09:15;101467.38;;;21.48;70.61
29121;BME280;16191;49.548;8.658;2023-09-30T10:11:44;101465.59;;;22.01;71.36
29121;BME280;16191;49.548;8.658;2023-09-30T10:14:29;101455.69;;;22.15;67.49
29121;BME280;16191;49.548;8.658;2023-09-30T10:16:56;101448.47;;;22.05;68.75
29121;BME280;16191;49.548;8.658;2023-09-30T10:19:23;101447.38;;;21.95;70.38
29121;BME280;16191;49.548;8.658;2023-09-30T10:24:47;101427.00;;;22.57;68.83
29121;BME280;16191;49.548;8.658;2023-09-30T10:30:05;101431.41;;;22.45;67.48
29121;BME280;16191;49.548;8.658;2023-09-30T10:40:57;101415.06;;;22.26;65.01
29121;BME280;16191;49.548;8.658;2023-09-30T10:46:00;101413.22;;;23.00;61.83
29121;BME280;16191;49.548;8.658;2023-09-30T10:50:55;101412.44;;;23.10;59.97
29121;BME280;16191;49.548;8.658;2023-09-30T10:53:23;101410.91;;;22.95;60.03
29121;BME280;16191;49.548;8.658;2023-09-30T10:55:57;101404.91;;;23.97;56.96
29121;BME280;16191;49.548;8.658;2023-09-30T11:01:11;101399.09;;;23.91;55.38
29121;BME280;16191;49.548;8.658;2023-09-30T11:03:41;101404.00;;;23.63;56.15
29121;BME280;16191;49.548;8.658;2023-09-30T11:06:11;101408.38;;;22.94;57.03
29121;BME280;16191;49.548;8.658;2023-09-30T11:08:45;101406.13;;;22.64;60.38
29121;BME280;16191;49.548;8.658;2023-09-30T11:11:13;101411.13;;;22.55;59.21
29121;BME280;16191;49.548;8.658;2023-09-30T11:13:41;101419.31;;;22.29;60.23
29121;BME280;16191;49.548;8.658;2023-09-30T11:16:08;101421.03;;;22.04;60.13
29121;BME280;16191;49.548;8.658;2023-09-30T11:18:35;101422.41;;;22.22;59.92
29121;BME280;16191;49.548;8.658;2023-09-30T11:21:09;101415.72;;;23.14;58.74
29121;BME280;16191;49.548;8.658;2023-09-30T11:23:37;101410.75;;;22.85;57.17
29121;BME280;16191;49.548;8.658;2023-09-30T11:26:04;101407.59;;;22.68;56.54
29121;BME280;16191;49.548;8.658;2023-09-30T11:28:49;101406.81;;;23.02;58.34
29121;BME280;16191;49.548;8.658;2023-09-30T11:31:16;101406.31;;;22.73;56.90
29121;BME280;16191;49.548;8.658;2023-09-30T11:33:51;101417.25;;;23.75;54.23
29121;BME280;16191;49.548;8.658;2023-09-30T11:36:20;101419.69;;;23.89;52.98
29121;BME280;16191;49.548;8.658;2023-09-30T11:38:49;101427.25;;;23.61;54.42
29121;BME280;16191;49.548;8.658;2023-09-30T11:41:17;101415.34;;;23.18;55.98
29121;BME280;16191;49.548;8.658;2023-09-30T11:44:03;101417.03;;;23.89;55.17
29121;BME280;16191;49.548;8.658;2023-09-30T11:46:58;101421.09;;;23.25;54.91
29121;BME280;16191;49.548;8.658;2023-09-30T11:49:31;101416.72;;;23.24;55.46
29121;BME280;16191;49.548;8.658;2023-09-30T11:52:03;101416.41;;;23.40;55.84
29121;BME280;16191;49.548;8.658;2023-09-30T11:54:35;101418.69;;;23.57;56.59
29121;BME280;16191;49.548;8.658;2023-09-30T11:57:06;101411.53;;;23.69;53.16
29121;BME280;16191;49.548;8.658;2023-09-30T11:59:36;101408.06;;;24.13;50.52
29121;BME280;16191;49.548;8.658;2023-09-30T12:02:04;101411.09;;;25.07;47.90
29121;BME280;16191;49.548;8.658;2023-09-30T12:04:45;101407.69;;;24.51;48.31
29121;BME280;16191;49.548;8.658;2023-09-30T12:07:14;101401.19;;;24.76;48.15
29121;BME280;16191;49.548;8.658;2023-09-30T12:09:41;101400.19;;;23.89;50.22
29121;BME280;16191;49.548;8.658;2023-09-30T12:12:11;101391.72;;;24.29;48.21
29121;BME280;16191;49.548;8.658;2023-09-30T12:14:40;101404.31;;;24.26;48.71
29121;BME280;16191;49.548;8.658;2023-09-30T12:17:07;101403.75;;;25.41;46.14
29121;BME280;16191;49.548;8.658;2023-09-30T12:19:39;101403.38;;;25.14;45.99
29121;BME280;16191;49.548;8.658;2023-09-30T12:22:08;101407.03;;;25.34;45.39
29121;BME280;16191;49.548;8.658;2023-09-30T12:24:35;101396.75;;;25.08;45.92
29121;BME280;16191;49.548;8.658;2023-09-30T12:27:02;101397.44;;;25.63;45.72
29121;BME280;16191;49.548;8.658;2023-09-30T12:29:29;101383.28;;;26.03;45.17
29121;BME280;16191;49.548;8.658;2023-09-30T12:31:55;101387.56;;;26.15;43.96
29121;BME280;16191;49.548;8.658;2023-09-30T12:34:22;101383.56;;;24.96;46.37
29121;BME280;16191;49.548;8.658;2023-09-30T12:36:54;101383.44;;;22.34;51.12
29121;BME280;16191;49.548;8.658;2023-09-30T12:39:22;101382.97;;;24.15;48.51
29121;BME280;16191;49.548;8.658;2023-09-30T12:41:52;101370.00;;;23.88;47.95
29121;BME280;16191;49.548;8.658;2023-09-30T12:44:19;101371.50;;;25.33;45.27
29121;BME280;16191;49.548;8.658;2023-09-30T12:46:46;101368.94;;;25.73;44.68
29121;BME280;16191;49.548;8.658;2023-09-30T12:49:13;101363.31;;;25.35;45.18
29121;BME280;16191;49.548;8.658;2023-09-30T12:51:40;101365.91;;;25.87;43.84
29121;BME280;16191;49.548;8.658;2023-09-30T12:54:08;101366.44;;;25.40;44.17
29121;BME280;16191;49.548;8.658;2023-09-30T12:56:35;101348.69;;;26.60;42.04
29121;BME280;16191;49.548;8.658;2023-09-30T12:59:02;101354.22;;;26.98;41.61
29121;BME280;16191;49.548;8.658;2023-09-30T13:01:29;101356.72;;;27.09;40.77
29121;BME280;16191;49.548;8.658;2023-09-30T13:04:01;101353.06;;;26.61;41.46
29121;BME280;16191;49.548;8.658;2023-09-30T13:06:28;101354.63;;;27.03;41.58
29121;BME280;16191;49.548;8.658;2023-09-30T13:08:57;101364.75;;;25.80;42.87
29121;BME280;16191;49.548;8.658;2023-09-30T13:11:26;101356.53;;;26.33;42.21
29121;BME280;16191;49.548;8.658;2023-09-30T13:13:53;101367.69;;;27.35;40.82